AirNav   TITAN Aviation Fuels
 
 1746 users online  

AZ31 Serene Field Airport
Maricopa, Arizona, USA

GOING TO MARICOPA?


FAA INFORMATION EFFECTIVE 04 NOVEMBER 2021

Location

FAA Identifier: AZ31
Lat/Long: 32-59-48.1740N 112-16-20.5340W
32-59.802900N 112-16.342233W
32.9967150,-112.2723706
(estimated)
Elevation: 1456 ft. / 444 m (estimated)
Variation: 13E (1985)
From city: 14 miles SW of MARICOPA, AZ
Time zone: UTC -7 (year round; does not observe DST)
Zip code: 85239

Airport Operations

Airport use: Private use. Permission required prior to landing
Activation date: 11/1988
Control tower: no
ARTCC: ALBUQUERQUE CENTER
FSS: PRESCOTT FLIGHT SERVICE STATION
Attendance: UNATNDD
Segmented circle: no

Airport Communications

WX AWOS-3 at A39 (18 nm E): 126.900 (520-568-7704)

Nearby radio navigation aids

VOR radial/distance  VOR name  Freq  Var
TFDr278/19.5STANFIELD VORTAC114.8012E
GBNr069/20.4GILA BEND VORTAC116.6014E
PXRr198/30.3PHOENIX VORTAC115.6012E
IWAr226/36.2WILLIE VORTAC113.3013E
BXKr121/39.0BUCKEYE VORTAC110.6014E

Airport Services

Runway Information

Runway 17/35

Dimensions: 3960 x 100 ft. / 1207 x 30 m
Surface: dirt
RUNWAY 17  RUNWAY 35
Traffic pattern: leftleft

Airport Ownership and Management from official FAA records

Ownership: Privately-owned
Owner: DILLION AERO, INC
8009 E. DILLONS WAY
SCOTTSDALE, AZ 85260
Phone (480) 333-5450
Manager: CHRIS DILLON
8009 E. DILLONS WAY
SCOTTSDALE, AZ 85260
Phone (480) 333-5450

Airport Operational Statistics

Aircraft based on the field: 1
Gliders airplanes: 1
    

Additional Remarks

FOR CD CTC LUKE APCH AT 623-856-7361. IF UNA, CTC PHOENIX APCH AT 602-306-2565.

Instrument Procedures

There are no published instrument procedures at AZ31.

Some nearby airports with instrument procedures:

P19 - Stellar Airpark (25 nm NE)
KCGZ - Casa Grande Municipal Airport (26 nm E)
KGYR - Phoenix Goodyear Airport (26 nm N)
KCHD - Chandler Municipal Airport (28 nm NE)
KPHX - Phoenix Sky Harbor International Airport (29 nm NE)
 
Loc | Ops | Rwys | IFR | FBO | Links
Com | Nav | Svcs | Stats | Notes
Area around AZ31 (Serene Field Airport)
 
Road maps at: MapQuest Bing Google
 
Aerial photo
No photo
 
Sectional chart

 
Airport distance calculator
Flying to Serene Field Airport? Find the distance to fly.

From to AZ31

Sunrise and sunset
Times for 30-Nov-2021
 Local
(UTC-7)
 Zulu
(UTC)
Morning civil twilight06:4713:47
Sunrise07:1414:14
Sunset17:2100:21
Evening civil twilight17:4800:48

Current date and time
Zulu (UTC)  30-Nov-2021 16:50:56
Local (UTC-7)  30-Nov-2021 09:50:56
 
METAR
KA39 
18nm E 
301635Z AUTO 00000KT 10SM SCT090 SCT110 16/M02 A3014 RMK AO2
KGXF 
23nm W 
301558Z AUTO 00000KT 10SM CLR 16/M05 A3004 RMK AO2 SLP167 T01571049 $
KCGZ 
26nm E 
301556Z AUTO 00000KT 10SM CLR 12/M02 A3010 RMK AO2 SLP190 T01171022
KGYR 
26nm N 
301547Z 03006KT 10SM SCT060 12/M01 A3008
KCHD 
28nm NE 
301547Z 00000KT 10SM CLR 14/00 A3009
KPHX 
28nm NE 
301551Z 08007KT 10SM SCT230 15/M02 A3006 RMK AO2 SLP172 T01501017
KLUF 
32nm N 
301558Z AUTO 00000KT 10SM CLR 11/M00 A3008 RMK AO2 SLP184 T01111001 $
KGEU 
32nm N 
301551Z 00000KT 10SM SKC 13/00 A3010
KBXK 
33nm NW 
301635Z AUTO 00000KT 9SM 13/M01 A3009 RMK A01
TAF
KPHX 
28nm NE 
301120Z 3012/0118 11005KT P6SM FEW250 FM302200 29005KT P6SM FEW250 FM010200 32005KT P6SM FEW250 FM010500 09005KT P6SM SKC
KLUF 
32nm N 
301200Z 3012/0118 VRB06KT 9999 FEW250 QNH2998INS TX29/3023Z TN09/3013Z
NOTAMs
Click for the latest NOTAMs
NOTAMs are issued by the DoD/FAA and will open in a separate window not controlled by AirNav.

 

 
 

Would you like to see your business listed on this page?

 If your business provides an interesting product or service to pilots, flight crews, aircraft, or users of the Serene Field Airport, you should consider listing it here.  To start the listing process, click on the button below
 
Add a business
 

Other Pages about Serene Field Airport

Update a link
 
Copyright © AirNav, LLC. All rights reserved. Privacy Policy  Contact